Maximo, Ohio
Current Conditions -  °F | °C
As of 10:51 PM on Wednesday 28 Jan 2015 (Local Time) from KCAK Reporting Station
Broken Clouds Broken Clouds  
Wind Chill: 12°   Ceiling: 20000
Heat Index: 23°   Visibility: 10mi
Dew Point: 11°   Wind: 12mph
Humidity: 60%   Direction: 180°S
Pressure: 30.23"   Gusts: NA
Location:  40.88°N, 81.17°W
Report Text: KCAK 290351Z 18010KT 10SM BKN200 M05/M12 A3023 RMK AO2 SLP256 T10501117 $
Loading
Personal Weather Stations






























Interactive Weather Map New forecast layout! Learn more

10-Day Weather Forecast

Advertisements
Track Severe Weather on mobile